sensor_id;sensor_type;location;lat;lon;timestamp;P1;durP1;ratioP1;P2;durP2;ratioP2
55063;SDS011;40963;52.168;21.296;2023-07-09T00:02:19;15.27;;;9.23;;
55063;SDS011;40963;52.168;21.296;2023-07-09T00:04:45;14.65;;;8.43;;
55063;SDS011;40963;52.168;21.296;2023-07-09T00:07:16;13.27;;;8.43;;
55063;SDS011;40963;52.168;21.296;2023-07-09T00:09:55;13.40;;;8.27;;
55063;SDS011;40963;52.168;21.296;2023-07-09T00:12:21;14.10;;;8.18;;
55063;SDS011;40963;52.168;21.296;2023-07-09T00:14:48;12.73;;;8.18;;
55063;SDS011;40963;52.168;21.296;2023-07-09T00:17:26;12.85;;;8.50;;
55063;SDS011;40963;52.168;21.296;2023-07-09T00:19:54;20.48;;;8.10;;
55063;SDS011;40963;52.168;21.296;2023-07-09T00:22:19;15.10;;;8.60;;
55063;SDS011;40963;52.168;21.296;2023-07-09T00:24:46;12.80;;;8.45;;
55063;SDS011;40963;52.168;21.296;2023-07-09T00:27:16;14.13;;;8.77;;
55063;SDS011;40963;52.168;21.296;2023-07-09T00:29:43;11.30;;;7.78;;
55063;SDS011;40963;52.168;21.296;2023-07-09T00:32:15;16.25;;;8.18;;
55063;SDS011;40963;52.168;21.296;2023-07-09T00:34:45;12.25;;;7.90;;
55063;SDS011;40963;52.168;21.296;2023-07-09T00:37:15;13.00;;;8.70;;
55063;SDS011;40963;52.168;21.296;2023-07-09T00:39:42;14.85;;;9.10;;
55063;SDS011;40963;52.168;21.296;2023-07-09T00:42:19;14.07;;;7.88;;
55063;SDS011;40963;52.168;21.296;2023-07-09T00:44:46;16.20;;;8.65;;
55063;SDS011;40963;52.168;21.296;2023-07-09T00:49:49;12.35;;;8.07;;
55063;SDS011;40963;52.168;21.296;2023-07-09T00:54:47;12.23;;;8.13;;
55063;SDS011;40963;52.168;21.296;2023-07-09T00:57:16;13.20;;;8.38;;
55063;SDS011;40963;52.168;21.296;2023-07-09T00:59:47;11.20;;;7.57;;
55063;SDS011;40963;52.168;21.296;2023-07-09T01:02:16;10.77;;;7.80;;
55063;SDS011;40963;52.168;21.296;2023-07-09T01:04:48;11.10;;;7.95;;
55063;SDS011;40963;52.168;21.296;2023-07-09T01:07:14;13.10;;;7.78;;
55063;SDS011;40963;52.168;21.296;2023-07-09T01:09:41;11.45;;;7.93;;
55063;SDS011;40963;52.168;21.296;2023-07-09T01:12:07;12.18;;;8.07;;
55063;SDS011;40963;52.168;21.296;2023-07-09T01:14:35;12.25;;;7.43;;
55063;SDS011;40963;52.168;21.296;2023-07-09T01:17:02;11.18;;;7.70;;
55063;SDS011;40963;52.168;21.296;2023-07-09T01:19:35;13.23;;;8.20;;
55063;SDS011;40963;52.168;21.296;2023-07-09T01:22:10;21.25;;;7.38;;
55063;SDS011;40963;52.168;21.296;2023-07-09T01:27:31;12.57;;;7.88;;
55063;SDS011;40963;52.168;21.296;2023-07-09T01:29:59;10.18;;;7.43;;
55063;SDS011;40963;52.168;21.296;2023-07-09T01:32:27;13.00;;;7.53;;
55063;SDS011;40963;52.168;21.296;2023-07-09T01:34:54;10.50;;;7.75;;
55063;SDS011;40963;52.168;21.296;2023-07-09T01:37:23;16.98;;;7.95;;
55063;SDS011;40963;52.168;21.296;2023-07-09T01:39:51;11.38;;;7.45;;
55063;SDS011;40963;52.168;21.296;2023-07-09T01:42:17;11.48;;;7.07;;
55063;SDS011;40963;52.168;21.296;2023-07-09T01:44:46;13.43;;;8.23;;
55063;SDS011;40963;52.168;21.296;2023-07-09T01:47:13;13.40;;;7.72;;
55063;SDS011;40963;52.168;21.296;2023-07-09T01:49:38;9.35;;;7.32;;
55063;SDS011;40963;52.168;21.296;2023-07-09T01:52:05;13.95;;;7.95;;
55063;SDS011;40963;52.168;21.296;2023-07-09T01:54:35;10.52;;;6.75;;
55063;SDS011;40963;52.168;21.296;2023-07-09T01:59:59;10.00;;;7.22;;
55063;SDS011;40963;52.168;21.296;2023-07-09T02:02:36;10.32;;;7.30;;
55063;SDS011;40963;52.168;21.296;2023-07-09T02:05:04;11.25;;;7.30;;
55063;SDS011;40963;52.168;21.296;2023-07-09T02:07:30;9.77;;;7.22;;
55063;SDS011;40963;52.168;21.296;2023-07-09T02:09:57;11.88;;;7.53;;
55063;SDS011;40963;52.168;21.296;2023-07-09T02:12:23;13.82;;;7.40;;
55063;SDS011;40963;52.168;21.296;2023-07-09T02:14:49;11.80;;;7.30;;
55063;SDS011;40963;52.168;21.296;2023-07-09T02:17:15;14.70;;;7.20;;
55063;SDS011;40963;52.168;21.296;2023-07-09T02:19:41;11.10;;;7.45;;
55063;SDS011;40963;52.168;21.296;2023-07-09T02:22:07;13.25;;;7.68;;
55063;SDS011;40963;52.168;21.296;2023-07-09T02:24:33;12.88;;;7.15;;
55063;SDS011;40963;52.168;21.296;2023-07-09T02:27:00;11.55;;;6.78;;
55063;SDS011;40963;52.168;21.296;2023-07-09T02:29:27;14.20;;;6.82;;
55063;SDS011;40963;52.168;21.296;2023-07-09T02:31:55;8.93;;;6.57;;
55063;SDS011;40963;52.168;21.296;2023-07-09T02:34:21;10.93;;;6.50;;
55063;SDS011;40963;52.168;21.296;2023-07-09T02:36:50;8.95;;;6.45;;
55063;SDS011;40963;52.168;21.296;2023-07-09T02:39:20;14.43;;;7.13;;
55063;SDS011;40963;52.168;21.296;2023-07-09T02:41:46;10.55;;;6.55;;
55063;SDS011;40963;52.168;21.296;2023-07-09T02:44:12;12.23;;;6.88;;
55063;SDS011;40963;52.168;21.296;2023-07-09T02:46:38;9.95;;;7.20;;
55063;SDS011;40963;52.168;21.296;2023-07-09T02:49:04;11.65;;;7.18;;
55063;SDS011;40963;52.168;21.296;2023-07-09T02:51:31;12.13;;;6.95;;
55063;SDS011;40963;52.168;21.296;2023-07-09T02:53:57;7.38;;;6.50;;
55063;SDS011;40963;52.168;21.296;2023-07-09T02:56:24;11.65;;;6.80;;
55063;SDS011;40963;52.168;21.296;2023-07-09T02:58:50;17.98;;;6.90;;
55063;SDS011;40963;52.168;21.296;2023-07-09T03:01:16;10.35;;;6.70;;
55063;SDS011;40963;52.168;21.296;2023-07-09T03:03:42;11.18;;;7.57;;
55063;SDS011;40963;52.168;21.296;2023-07-09T03:06:08;9.98;;;7.03;;
55063;SDS011;40963;52.168;21.296;2023-07-09T03:08:35;19.13;;;7.00;;
55063;SDS011;40963;52.168;21.296;2023-07-09T03:11:08;17.50;;;6.85;;
55063;SDS011;40963;52.168;21.296;2023-07-09T03:13:35;11.15;;;7.60;;
55063;SDS011;40963;52.168;21.296;2023-07-09T03:16:01;10.82;;;7.40;;
55063;SDS011;40963;52.168;21.296;2023-07-09T03:18:27;13.57;;;6.75;;
55063;SDS011;40963;52.168;21.296;2023-07-09T03:20:53;11.68;;;7.28;;
55063;SDS011;40963;52.168;21.296;2023-07-09T03:23:18;11.63;;;6.82;;
55063;SDS011;40963;52.168;21.296;2023-07-09T03:25:44;10.98;;;6.97;;
55063;SDS011;40963;52.168;21.296;2023-07-09T03:28:12;9.10;;;6.68;;
55063;SDS011;40963;52.168;21.296;2023-07-09T03:30:40;10.40;;;6.22;;
55063;SDS011;40963;52.168;21.296;2023-07-09T03:33:10;10.60;;;6.53;;
55063;SDS011;40963;52.168;21.296;2023-07-09T03:35:36;7.70;;;6.38;;
55063;SDS011;40963;52.168;21.296;2023-07-09T03:38:03;10.98;;;7.25;;
55063;SDS011;40963;52.168;21.296;2023-07-09T03:40:30;9.05;;;6.65;;
55063;SDS011;40963;52.168;21.296;2023-07-09T03:42:55;14.80;;;6.32;;
55063;SDS011;40963;52.168;21.296;2023-07-09T03:45:21;8.35;;;6.65;;
55063;SDS011;40963;52.168;21.296;2023-07-09T03:47:48;11.23;;;7.28;;
55063;SDS011;40963;52.168;21.296;2023-07-09T03:50:13;15.32;;;6.75;;
55063;SDS011;40963;52.168;21.296;2023-07-09T03:52:40;11.85;;;6.55;;
55063;SDS011;40963;52.168;21.296;2023-07-09T03:55:06;9.05;;;6.90;;
55063;SDS011;40963;52.168;21.296;2023-07-09T03:57:32;12.27;;;6.07;;
55063;SDS011;40963;52.168;21.296;2023-07-09T03:59:58;10.18;;;6.95;;
55063;SDS011;40963;52.168;21.296;2023-07-09T04:02:24;11.57;;;6.50;;
55063;SDS011;40963;52.168;21.296;2023-07-09T04:04:49;9.98;;;6.75;;
55063;SDS011;40963;52.168;21.296;2023-07-09T04:07:15;15.32;;;6.65;;
55063;SDS011;40963;52.168;21.296;2023-07-09T04:09:41;10.02;;;6.18;;
55063;SDS011;40963;52.168;21.296;2023-07-09T04:12:08;10.40;;;6.55;;
55063;SDS011;40963;52.168;21.296;2023-07-09T04:14:34;11.00;;;6.50;;
55063;SDS011;40963;52.168;21.296;2023-07-09T04:17:00;10.57;;;6.75;;
55063;SDS011;40963;52.168;21.296;2023-07-09T04:19:26;13.75;;;6.93;;
55063;SDS011;40963;52.168;21.296;2023-07-09T04:21:51;8.10;;;6.15;;
55063;SDS011;40963;52.168;21.296;2023-07-09T04:24:18;9.63;;;6.00;;
55063;SDS011;40963;52.168;21.296;2023-07-09T04:26:44;15.77;;;5.88;;
55063;SDS011;40963;52.168;21.296;2023-07-09T04:29:11;8.98;;;5.43;;
55063;SDS011;40963;52.168;21.296;2023-07-09T04:31:37;10.10;;;6.15;;
55063;SDS011;40963;52.168;21.296;2023-07-09T04:34:04;9.32;;;5.47;;
55063;SDS011;40963;52.168;21.296;2023-07-09T04:36:29;8.50;;;6.05;;
55063;SDS011;40963;52.168;21.296;2023-07-09T04:38:56;9.07;;;5.57;;
55063;SDS011;40963;52.168;21.296;2023-07-09T04:41:21;11.07;;;5.90;;
55063;SDS011;40963;52.168;21.296;2023-07-09T04:43:47;7.40;;;5.47;;
55063;SDS011;40963;52.168;21.296;2023-07-09T04:46:13;9.93;;;5.63;;
55063;SDS011;40963;52.168;21.296;2023-07-09T04:48:39;7.18;;;5.50;;
55063;SDS011;40963;52.168;21.296;2023-07-09T04:51:05;7.90;;;5.30;;
55063;SDS011;40963;52.168;21.296;2023-07-09T04:53:30;10.35;;;5.55;;
55063;SDS011;40963;52.168;21.296;2023-07-09T04:55:56;8.05;;;5.28;;
55063;SDS011;40963;52.168;21.296;2023-07-09T04:58:22;7.55;;;5.40;;
55063;SDS011;40963;52.168;21.296;2023-07-09T05:00:48;9.30;;;5.53;;
55063;SDS011;40963;52.168;21.296;2023-07-09T05:03:15;9.70;;;5.47;;
55063;SDS011;40963;52.168;21.296;2023-07-09T05:05:42;7.72;;;5.07;;
55063;SDS011;40963;52.168;21.296;2023-07-09T05:08:08;7.32;;;4.68;;
55063;SDS011;40963;52.168;21.296;2023-07-09T05:10:34;7.53;;;4.60;;
55063;SDS011;40963;52.168;21.296;2023-07-09T05:13:09;6.97;;;4.72;;
55063;SDS011;40963;52.168;21.296;2023-07-09T05:15:35;15.70;;;5.15;;
55063;SDS011;40963;52.168;21.296;2023-07-09T05:18:04;8.57;;;4.40;;
55063;SDS011;40963;52.168;21.296;2023-07-09T05:20:30;7.00;;;4.10;;
55063;SDS011;40963;52.168;21.296;2023-07-09T05:22:56;4.97;;;4.10;;
55063;SDS011;40963;52.168;21.296;2023-07-09T05:25:21;4.72;;;4.18;;
55063;SDS011;40963;52.168;21.296;2023-07-09T05:27:47;5.50;;;4.38;;
55063;SDS011;40963;52.168;21.296;2023-07-09T05:30:12;6.00;;;4.00;;
55063;SDS011;40963;52.168;21.296;2023-07-09T05:32:38;4.43;;;3.58;;
55063;SDS011;40963;52.168;21.296;2023-07-09T05:35:04;6.25;;;4.18;;
55063;SDS011;40963;52.168;21.296;2023-07-09T05:37:30;6.65;;;4.13;;
55063;SDS011;40963;52.168;21.296;2023-07-09T05:39:56;4.65;;;3.90;;
55063;SDS011;40963;52.168;21.296;2023-07-09T05:42:21;5.70;;;3.97;;
55063;SDS011;40963;52.168;21.296;2023-07-09T05:44:47;9.50;;;4.15;;
55063;SDS011;40963;52.168;21.296;2023-07-09T05:47:13;4.30;;;3.70;;
55063;SDS011;40963;52.168;21.296;2023-07-09T05:49:38;4.75;;;3.67;;
55063;SDS011;40963;52.168;21.296;2023-07-09T05:52:04;7.00;;;3.70;;
55063;SDS011;40963;52.168;21.296;2023-07-09T05:54:31;5.80;;;3.72;;
55063;SDS011;40963;52.168;21.296;2023-07-09T05:56:56;5.78;;;3.35;;
55063;SDS011;40963;52.168;21.296;2023-07-09T05:59:22;5.43;;;3.70;;
55063;SDS011;40963;52.168;21.296;2023-07-09T06:01:48;6.25;;;3.45;;
55063;SDS011;40963;52.168;21.296;2023-07-09T06:04:13;5.97;;;3.95;;
55063;SDS011;40963;52.168;21.296;2023-07-09T06:06:39;5.82;;;3.60;;
55063;SDS011;40963;52.168;21.296;2023-07-09T06:09:06;5.22;;;3.33;;
55063;SDS011;40963;52.168;21.296;2023-07-09T06:11:35;4.25;;;3.05;;
55063;SDS011;40963;52.168;21.296;2023-07-09T06:14:00;5.63;;;3.20;;
55063;SDS011;40963;52.168;21.296;2023-07-09T06:16:26;3.95;;;3.15;;
55063;SDS011;40963;52.168;21.296;2023-07-09T06:18:52;4.95;;;3.10;;
55063;SDS011;40963;52.168;21.296;2023-07-09T06:21:18;3.22;;;2.90;;
55063;SDS011;40963;52.168;21.296;2023-07-09T06:23:45;3.50;;;2.90;;
55063;SDS011;40963;52.168;21.296;2023-07-09T06:26:11;6.85;;;2.92;;
55063;SDS011;40963;52.168;21.296;2023-07-09T06:28:36;3.20;;;2.70;;
55063;SDS011;40963;52.168;21.296;2023-07-09T06:31:02;3.45;;;3.15;;
55063;SDS011;40963;52.168;21.296;2023-07-09T06:33:28;3.67;;;2.67;;
55063;SDS011;40963;52.168;21.296;2023-07-09T06:35:55;6.45;;;2.70;;
55063;SDS011;40963;52.168;21.296;2023-07-09T06:38:22;4.00;;;2.70;;
55063;SDS011;40963;52.168;21.296;2023-07-09T06:40:48;8.57;;;2.90;;
55063;SDS011;40963;52.168;21.296;2023-07-09T06:43:14;3.13;;;2.63;;
55063;SDS011;40963;52.168;21.296;2023-07-09T06:45:47;5.00;;;2.97;;
55063;SDS011;40963;52.168;21.296;2023-07-09T06:48:14;3.75;;;3.00;;
55063;SDS011;40963;52.168;21.296;2023-07-09T06:50:40;3.38;;;2.60;;
55063;SDS011;40963;52.168;21.296;2023-07-09T06:53:05;6.28;;;3.20;;
55063;SDS011;40963;52.168;21.296;2023-07-09T06:55:31;5.70;;;3.00;;
55063;SDS011;40963;52.168;21.296;2023-07-09T06:57:57;5.90;;;2.92;;
55063;SDS011;40963;52.168;21.296;2023-07-09T07:00:22;5.25;;;2.88;;
55063;SDS011;40963;52.168;21.296;2023-07-09T07:02:48;7.25;;;3.05;;
55063;SDS011;40963;52.168;21.296;2023-07-09T07:05:14;4.47;;;2.67;;
55063;SDS011;40963;52.168;21.296;2023-07-09T07:07:40;4.13;;;2.55;;
55063;SDS011;40963;52.168;21.296;2023-07-09T07:10:05;4.47;;;2.78;;
55063;SDS011;40963;52.168;21.296;2023-07-09T07:12:40;6.40;;;2.60;;
55063;SDS011;40963;52.168;21.296;2023-07-09T07:15:07;4.32;;;2.30;;
55063;SDS011;40963;52.168;21.296;2023-07-09T07:17:33;6.53;;;2.65;;
55063;SDS011;40963;52.168;21.296;2023-07-09T07:19:59;4.03;;;2.40;;
55063;SDS011;40963;52.168;21.296;2023-07-09T07:22:25;2.25;;;2.03;;
55063;SDS011;40963;52.168;21.296;2023-07-09T07:24:51;4.60;;;2.13;;
55063;SDS011;40963;52.168;21.296;2023-07-09T07:27:17;5.93;;;2.10;;
55063;SDS011;40963;52.168;21.296;2023-07-09T07:29:42;4.88;;;1.98;;
55063;SDS011;40963;52.168;21.296;2023-07-09T07:32:09;4.30;;;2.40;;
55063;SDS011;40963;52.168;21.296;2023-07-09T07:34:35;2.55;;;1.80;;
55063;SDS011;40963;52.168;21.296;2023-07-09T07:37:01;2.92;;;2.10;;
55063;SDS011;40963;52.168;21.296;2023-07-09T07:39:26;4.50;;;2.10;;
55063;SDS011;40963;52.168;21.296;2023-07-09T07:41:52;2.30;;;2.10;;
55063;SDS011;40963;52.168;21.296;2023-07-09T07:44:17;5.38;;;1.77;;
55063;SDS011;40963;52.168;21.296;2023-07-09T07:46:43;2.35;;;1.80;;
55063;SDS011;40963;52.168;21.296;2023-07-09T07:49:09;3.55;;;2.03;;
55063;SDS011;40963;52.168;21.296;2023-07-09T07:51:35;4.85;;;1.60;;
55063;SDS011;40963;52.168;21.296;2023-07-09T07:54:02;2.53;;;1.70;;
55063;SDS011;40963;52.168;21.296;2023-07-09T07:56:27;5.57;;;1.95;;
55063;SDS011;40963;52.168;21.296;2023-07-09T07:58:53;2.08;;;1.83;;
55063;SDS011;40963;52.168;21.296;2023-07-09T08:01:19;3.35;;;2.10;;
55063;SDS011;40963;52.168;21.296;2023-07-09T08:03:44;4.05;;;2.00;;
55063;SDS011;40963;52.168;21.296;2023-07-09T08:06:10;3.40;;;2.15;;
55063;SDS011;40963;52.168;21.296;2023-07-09T08:08:36;3.00;;;1.77;;
55063;SDS011;40963;52.168;21.296;2023-07-09T08:11:03;2.10;;;1.58;;
55063;SDS011;40963;52.168;21.296;2023-07-09T08:13:31;2.20;;;1.42;;
55063;SDS011;40963;52.168;21.296;2023-07-09T08:15:58;2.40;;;1.67;;
55063;SDS011;40963;52.168;21.296;2023-07-09T08:18:23;5.30;;;2.08;;
55063;SDS011;40963;52.168;21.296;2023-07-09T08:20:49;3.15;;;1.83;;
55063;SDS011;40963;52.168;21.296;2023-07-09T08:23:14;5.50;;;1.67;;
55063;SDS011;40963;52.168;21.296;2023-07-09T08:25:40;6.72;;;1.85;;
55063;SDS011;40963;52.168;21.296;2023-07-09T08:28:06;1.60;;;1.50;;
55063;SDS011;40963;52.168;21.296;2023-07-09T08:30:31;1.80;;;1.70;;
55063;SDS011;40963;52.168;21.296;2023-07-09T08:32:59;4.07;;;1.60;;
55063;SDS011;40963;52.168;21.296;2023-07-09T08:35:25;1.77;;;1.50;;
55063;SDS011;40963;52.168;21.296;2023-07-09T08:37:51;1.60;;;1.50;;
55063;SDS011;40963;52.168;21.296;2023-07-09T08:40:17;2.50;;;1.83;;
55063;SDS011;40963;52.168;21.296;2023-07-09T08:42:45;14.52;;;2.10;;
55063;SDS011;40963;52.168;21.296;2023-07-09T08:53:03;2.15;;;1.33;;
55063;SDS011;40963;52.168;21.296;2023-07-09T08:55:34;1.60;;;1.50;;
55063;SDS011;40963;52.168;21.296;2023-07-09T08:58:09;1.30;;;1.20;;
55063;SDS011;40963;52.168;21.296;2023-07-09T09:06:00;2.15;;;1.20;;
55063;SDS011;40963;52.168;21.296;2023-07-09T09:08:40;2.40;;;1.20;;
55063;SDS011;40963;52.168;21.296;2023-07-09T09:11:07;2.83;;;1.33;;
55063;SDS011;40963;52.168;21.296;2023-07-09T09:13:48;3.45;;;1.45;;
55063;SDS011;40963;52.168;21.296;2023-07-09T09:16:22;2.15;;;1.30;;
55063;SDS011;40963;52.168;21.296;2023-07-09T09:18:52;2.53;;;1.30;;
55063;SDS011;40963;52.168;21.296;2023-07-09T09:21:26;3.38;;;1.48;;
55063;SDS011;40963;52.168;21.296;2023-07-09T09:24:01;5.85;;;1.50;;
55063;SDS011;40963;52.168;21.296;2023-07-09T09:27:03;2.17;;;1.52;;
55063;SDS011;40963;52.168;21.296;2023-07-09T09:29:29;2.25;;;1.25;;
55063;SDS011;40963;52.168;21.296;2023-07-09T09:31:56;7.00;;;1.33;;
55063;SDS011;40963;52.168;21.296;2023-07-09T09:34:26;3.22;;;1.00;;
55063;SDS011;40963;52.168;21.296;2023-07-09T09:36:53;1.90;;;1.33;;
55063;SDS011;40963;52.168;21.296;2023-07-09T09:39:20;1.38;;;1.27;;
55063;SDS011;40963;52.168;21.296;2023-07-09T09:41:48;1.70;;;1.38;;
55063;SDS011;40963;52.168;21.296;2023-07-09T09:44:23;1.10;;;1.00;;
55063;SDS011;40963;52.168;21.296;2023-07-09T09:46:51;1.92;;;1.25;;
55063;SDS011;40963;52.168;21.296;2023-07-09T09:49:17;2.78;;;1.30;;
55063;SDS011;40963;52.168;21.296;2023-07-09T09:51:44;1.58;;;1.30;;
55063;SDS011;40963;52.168;21.296;2023-07-09T09:54:18;3.83;;;1.40;;
55063;SDS011;40963;52.168;21.296;2023-07-09T09:56:47;2.65;;;1.30;;
55063;SDS011;40963;52.168;21.296;2023-07-09T09:59:30;1.88;;;1.13;;
55063;SDS011;40963;52.168;21.296;2023-07-09T10:01:58;3.17;;;1.25;;
55063;SDS011;40963;52.168;21.296;2023-07-09T10:04:25;1.33;;;1.00;;
55063;SDS011;40963;52.168;21.296;2023-07-09T10:06:56;5.20;;;1.33;;
55063;SDS011;40963;52.168;21.296;2023-07-09T10:09:46;3.90;;;0.90;;
55063;SDS011;40963;52.168;21.296;2023-07-09T10:12:38;3.60;;;1.23;;
55063;SDS011;40963;52.168;21.296;2023-07-09T10:18:02;2.25;;;1.13;;
55063;SDS011;40963;52.168;21.296;2023-07-09T10:20:34;1.20;;;1.10;;
55063;SDS011;40963;52.168;21.296;2023-07-09T10:26:10;1.95;;;0.98;;
55063;SDS011;40963;52.168;21.296;2023-07-09T10:34:06;1.00;;;0.90;;
55063;SDS011;40963;52.168;21.296;2023-07-09T10:37:27;2.33;;;0.95;;
55063;SDS011;40963;52.168;21.296;2023-07-09T10:39:40;3.35;;;0.80;;
55063;SDS011;40963;52.168;21.296;2023-07-09T10:42:13;3.58;;;0.73;;
55063;SDS011;40963;52.168;21.296;2023-07-09T10:45:04;1.27;;;1.00;;
55063;SDS011;40963;52.168;21.296;2023-07-09T10:47:41;1.08;;;0.80;;
55063;SDS011;40963;52.168;21.296;2023-07-09T10:50:15;8.50;;;1.00;;
55063;SDS011;40963;52.168;21.296;2023-07-09T10:52:49;1.10;;;0.68;;
55063;SDS011;40963;52.168;21.296;2023-07-09T10:55:39;1.60;;;1.00;;
55063;SDS011;40963;52.168;21.296;2023-07-09T11:00:47;1.38;;;0.80;;
55063;SDS011;40963;52.168;21.296;2023-07-09T11:03:18;0.68;;;0.60;;
55063;SDS011;40963;52.168;21.296;2023-07-09T11:05:46;1.27;;;0.80;;
55063;SDS011;40963;52.168;21.296;2023-07-09T11:08:15;1.13;;;1.00;;
55063;SDS011;40963;52.168;21.296;2023-07-09T11:10:49;1.33;;;0.73;;
55063;SDS011;40963;52.168;21.296;2023-07-09T11:13:19;1.38;;;0.80;;
55063;SDS011;40963;52.168;21.296;2023-07-09T11:16:20;2.10;;;0.80;;
55063;SDS011;40963;52.168;21.296;2023-07-09T11:18:59;4.30;;;0.75;;
55063;SDS011;40963;52.168;21.296;2023-07-09T11:21:26;2.67;;;0.93;;
55063;SDS011;40963;52.168;21.296;2023-07-09T11:23:53;1.42;;;0.63;;
55063;SDS011;40963;52.168;21.296;2023-07-09T11:26:24;0.85;;;0.73;;
55063;SDS011;40963;52.168;21.296;2023-07-09T11:28:55;2.97;;;0.90;;
55063;SDS011;40963;52.168;21.296;2023-07-09T11:31:35;3.72;;;0.70;;
55063;SDS011;40963;52.168;21.296;2023-07-09T11:36:32;1.40;;;0.90;;
55063;SDS011;40963;52.168;21.296;2023-07-09T11:38:59;1.65;;;0.90;;
55063;SDS011;40963;52.168;21.296;2023-07-09T11:49:49;1.90;;;0.93;;
55063;SDS011;40963;52.168;21.296;2023-07-09T11:55:22;1.50;;;1.00;;
55063;SDS011;40963;52.168;21.296;2023-07-09T11:58:02;2.95;;;1.48;;
55063;SDS011;40963;52.168;21.296;2023-07-09T12:00:30;1.20;;;1.00;;
55063;SDS011;40963;52.168;21.296;2023-07-09T12:03:02;1.90;;;0.95;;
55063;SDS011;40963;52.168;21.296;2023-07-09T12:05:29;1.23;;;0.95;;
55063;SDS011;40963;52.168;21.296;2023-07-09T12:07:55;0.95;;;0.93;;
55063;SDS011;40963;52.168;21.296;2023-07-09T12:10:24;1.00;;;0.90;;
55063;SDS011;40963;52.168;21.296;2023-07-09T12:12:56;1.13;;;1.02;;
55063;SDS011;40963;52.168;21.296;2023-07-09T12:15:24;1.15;;;1.05;;
55063;SDS011;40963;52.168;21.296;2023-07-09T12:17:52;1.75;;;0.98;;
55063;SDS011;40963;52.168;21.296;2023-07-09T12:20:19;1.00;;;0.90;;
55063;SDS011;40963;52.168;21.296;2023-07-09T12:22:45;1.23;;;0.90;;
55063;SDS011;40963;52.168;21.296;2023-07-09T12:25:19;2.13;;;0.90;;
55063;SDS011;40963;52.168;21.296;2023-07-09T12:27:47;1.20;;;1.10;;
55063;SDS011;40963;52.168;21.296;2023-07-09T12:30:13;0.70;;;0.70;;
55063;SDS011;40963;52.168;21.296;2023-07-09T12:32:45;2.72;;;1.00;;
55063;SDS011;40963;52.168;21.296;2023-07-09T12:35:12;1.38;;;0.90;;
55063;SDS011;40963;52.168;21.296;2023-07-09T12:37:40;2.65;;;0.90;;
55063;SDS011;40963;52.168;21.296;2023-07-09T12:40:30;1.10;;;0.90;;
55063;SDS011;40963;52.168;21.296;2023-07-09T12:42:56;0.70;;;0.70;;
55063;SDS011;40963;52.168;21.296;2023-07-09T12:45:22;1.30;;;1.02;;
55063;SDS011;40963;52.168;21.296;2023-07-09T12:47:48;1.40;;;1.05;;
55063;SDS011;40963;52.168;21.296;2023-07-09T12:52:54;1.25;;;1.02;;
55063;SDS011;40963;52.168;21.296;2023-07-09T12:55:23;1.27;;;0.95;;
55063;SDS011;40963;52.168;21.296;2023-07-09T12:57:55;1.17;;;1.00;;
55063;SDS011;40963;52.168;21.296;2023-07-09T13:00:22;14.57;;;1.20;;
55063;SDS011;40963;52.168;21.296;2023-07-09T13:02:54;1.20;;;1.10;;
55063;SDS011;40963;52.168;21.296;2023-07-09T13:05:22;0.90;;;0.90;;
55063;SDS011;40963;52.168;21.296;2023-07-09T13:07:53;1.58;;;1.10;;
55063;SDS011;40963;52.168;21.296;2023-07-09T13:10:29;1.33;;;0.88;;
55063;SDS011;40963;52.168;21.296;2023-07-09T13:13:03;1.20;;;0.98;;
55063;SDS011;40963;52.168;21.296;2023-07-09T13:18:27;2.05;;;1.10;;
55063;SDS011;40963;52.168;21.296;2023-07-09T13:20:54;2.40;;;1.40;;
55063;SDS011;40963;52.168;21.296;2023-07-09T13:23:22;2.95;;;1.13;;
55063;SDS011;40963;52.168;21.296;2023-07-09T13:25:50;2.80;;;0.98;;
55063;SDS011;40963;52.168;21.296;2023-07-09T13:28:24;1.90;;;1.00;;
55063;SDS011;40963;52.168;21.296;2023-07-09T13:33:37;3.38;;;1.20;;
55063;SDS011;40963;52.168;21.296;2023-07-09T13:36:04;2.92;;;1.10;;
55063;SDS011;40963;52.168;21.296;2023-07-09T13:38:31;1.90;;;1.70;;
55063;SDS011;40963;52.168;21.296;2023-07-09T13:40:59;1.20;;;1.10;;
55063;SDS011;40963;52.168;21.296;2023-07-09T13:43:34;3.47;;;1.50;;
55063;SDS011;40963;52.168;21.296;2023-07-09T13:46:01;2.15;;;1.08;;
55063;SDS011;40963;52.168;21.296;2023-07-09T13:48:28;1.20;;;1.10;;
55063;SDS011;40963;52.168;21.296;2023-07-09T13:50:56;4.47;;;1.17;;
55063;SDS011;40963;52.168;21.296;2023-07-09T13:53:27;1.17;;;1.10;;
55063;SDS011;40963;52.168;21.296;2023-07-09T13:55:55;4.93;;;1.23;;
55063;SDS011;40963;52.168;21.296;2023-07-09T13:58:22;1.48;;;1.20;;
55063;SDS011;40963;52.168;21.296;2023-07-09T14:00:50;1.50;;;1.25;;
55063;SDS011;40963;52.168;21.296;2023-07-09T14:03:25;1.30;;;1.20;;
55063;SDS011;40963;52.168;21.296;2023-07-09T14:05:53;2.58;;;1.20;;
55063;SDS011;40963;52.168;21.296;2023-07-09T14:08:19;1.17;;;1.00;;
55063;SDS011;40963;52.168;21.296;2023-07-09T14:10:46;1.15;;;1.05;;
55063;SDS011;40963;52.168;21.296;2023-07-09T14:13:14;1.48;;;1.15;;
55063;SDS011;40963;52.168;21.296;2023-07-09T14:15:41;2.22;;;1.20;;
55063;SDS011;40963;52.168;21.296;2023-07-09T14:18:10;1.88;;;1.08;;
55063;SDS011;40963;52.168;21.296;2023-07-09T14:20:41;1.40;;;1.10;;
55063;SDS011;40963;52.168;21.296;2023-07-09T14:23:09;1.50;;;1.10;;
55063;SDS011;40963;52.168;21.296;2023-07-09T14:25:36;3.85;;;1.20;;
55063;SDS011;40963;52.168;21.296;2023-07-09T14:28:36;1.35;;;1.25;;
55063;SDS011;40963;52.168;21.296;2023-07-09T14:30:54;1.50;;;1.40;;
55063;SDS011;40963;52.168;21.296;2023-07-09T14:33:20;1.50;;;1.40;;
55063;SDS011;40963;52.168;21.296;2023-07-09T14:35:46;1.73;;;1.20;;
55063;SDS011;40963;52.168;21.296;2023-07-09T14:40:50;2.15;;;1.40;;
55063;SDS011;40963;52.168;21.296;2023-07-09T14:43:17;2.47;;;1.30;;
55063;SDS011;40963;52.168;21.296;2023-07-09T14:45:43;7.38;;;1.38;;
55063;SDS011;40963;52.168;21.296;2023-07-09T14:48:12;1.58;;;1.10;;
55063;SDS011;40963;52.168;21.296;2023-07-09T14:50:41;2.08;;;1.30;;
55063;SDS011;40963;52.168;21.296;2023-07-09T14:53:12;1.40;;;1.20;;
55063;SDS011;40963;52.168;21.296;2023-07-09T14:55:40;1.15;;;1.08;;
55063;SDS011;40963;52.168;21.296;2023-07-09T14:58:16;2.83;;;1.13;;
55063;SDS011;40963;52.168;21.296;2023-07-09T15:00:44;3.38;;;1.20;;
55063;SDS011;40963;52.168;21.296;2023-07-09T15:03:17;1.20;;;1.10;;
55063;SDS011;40963;52.168;21.296;2023-07-09T15:05:48;6.88;;;1.52;;
55063;SDS011;40963;52.168;21.296;2023-07-09T15:08:15;3.25;;;1.30;;
55063;SDS011;40963;52.168;21.296;2023-07-09T15:10:42;1.95;;;1.30;;
55063;SDS011;40963;52.168;21.296;2023-07-09T15:13:15;1.30;;;1.20;;
55063;SDS011;40963;52.168;21.296;2023-07-09T15:15:49;1.67;;;1.50;;
55063;SDS011;40963;52.168;21.296;2023-07-09T15:18:15;1.33;;;1.23;;
55063;SDS011;40963;52.168;21.296;2023-07-09T15:20:44;1.45;;;1.27;;
55063;SDS011;40963;52.168;21.296;2023-07-09T15:23:18;1.35;;;1.05;;
55063;SDS011;40963;52.168;21.296;2023-07-09T15:25:44;4.72;;;1.50;;
55063;SDS011;40963;52.168;21.296;2023-07-09T15:28:10;1.10;;;1.00;;
55063;SDS011;40963;52.168;21.296;2023-07-09T15:30:36;2.80;;;1.20;;
55063;SDS011;40963;52.168;21.296;2023-07-09T15:33:03;1.30;;;1.20;;
55063;SDS011;40963;52.168;21.296;2023-07-09T15:35:33;1.73;;;1.20;;
55063;SDS011;40963;52.168;21.296;2023-07-09T15:38:01;1.30;;;1.20;;
55063;SDS011;40963;52.168;21.296;2023-07-09T15:40:48;1.45;;;1.33;;
55063;SDS011;40963;52.168;21.296;2023-07-09T15:43:15;3.08;;;1.20;;